Time;durP1;ratioP1;P1;durP2;ratioP2;P2;SDS_P1;SDS_P2;PMS_P1;PMS_P2;Temp;Humidity;BMP_temperature;BMP_pressure;BME280_temperature;BME280_humidity;BME280_pressure;Samples;Min_cycle;Max_cycle;Signal;HPM_P1;HPM_P2
2023/05/18 00:01:11;;;;;;;15.35;3.53;;;;;;;14.89;95.22;99156.94;5071077;28;20052;-83
2023/05/18 00:03:37;;;;;;;11.65;3.30;;;;;;;14.83;95.13;99151.88;5089349;28;20040;-86
2023/05/18 00:06:06;;;;;;;8.18;4.20;;;;;;;14.72;95.67;99143.47;5089928;28;20058;-83
2023/05/18 00:08:35;;;;;;;4.95;3.50;;;;;;;14.54;96.36;99118.53;5089832;28;20157;-83
2023/05/18 00:11:02;;;;;;;3.38;2.38;;;;;;;14.62;95.44;99112.00;5090710;28;20031;-83
2023/05/18 00:13:28;;;;;;;2.58;2.38;;;;;;;14.85;95.84;99163.31;5093612;28;20077;-85
2023/05/18 00:15:54;;;;;;;4.93;3.90;;;;;;;14.73;96.05;99156.69;5094217;28;20413;-85
2023/05/18 00:18:22;;;;;;;4.15;2.83;;;;;;;14.68;96.15;99156.03;5094157;28;20028;-85
2023/05/18 00:20:58;;;;;;;5.18;3.53;;;;;;;14.73;95.85;99175.28;5093585;28;20035;-85
2023/05/18 00:23:28;;;;;;;6.07;2.80;;;;;;;14.63;95.78;99155.34;5075650;28;20073;-85
2023/05/18 00:25:57;;;;;;;6.53;3.95;;;;;;;14.50;95.28;99136.34;5094228;28;20036;-84
2023/05/18 00:28:23;;;;;;;5.47;3.25;;;;;;;14.75;94.82;99176.09;5093954;28;20535;-84
2023/05/18 00:30:48;;;;;;;6.20;3.80;;;;;;;14.32;95.12;99108.78;5093162;28;20032;-83
2023/05/18 00:33:13;;;;;;;;;;;;;;;14.65;94.58;99159.66;5093892;28;20473;-84
2023/05/18 00:35:39;;;;;;;11.27;2.03;;;;;;;14.41;95.07;99132.28;5074368;28;19984;-84
2023/05/18 00:38:04;;;;;;;5.65;4.57;;;;;;;14.51;94.26;99156.66;5093300;28;20035;-84
2023/05/18 00:40:30;;;;;;;7.57;1.83;;;;;;;14.18;94.15;99092.53;5075194;28;20101;-83
2023/05/18 00:42:55;;;;;;;;;;;;;;;14.43;94.08;99151.66;5094148;28;20556;-83
2023/05/18 00:45:21;;;;;;;2.90;2.15;;;;;;;14.25;94.06;99124.06;5093400;28;20039;-84
2023/05/18 00:47:47;;;;;;;3.55;1.85;;;;;;;14.19;93.67;99102.22;5093579;28;20035;-84
2023/05/18 00:50:12;;;;;;;;;;;;;;;14.27;93.61;99145.22;5093810;28;20424;-84
2023/05/18 00:52:38;;;;;;;3.30;2.47;;;;;;;14.19;93.87;99134.06;5074432;28;19912;-83
2023/05/18 00:55:05;;;;;;;12.30;1.40;;;;;;;13.99;94.16;99129.50;5093437;28;20032;-83
2023/05/18 00:57:32;;;;;;;3.75;2.42;;;;;;;14.09;93.66;99130.91;5093377;28;20481;-84
2023/05/18 00:59:59;;;;;;;2.70;1.85;;;;;;;13.62;93.53;99078.72;5074376;28;20051;-86
2023/05/18 01:02:28;;;;;;;2.35;1.33;;;;;;;14.04;93.24;99138.16;5092618;28;20518;-86
2023/05/18 01:04:54;;;;;;;2.35;1.95;;;;;;;13.81;93.79;99128.41;5086485;28;20119;-84
2023/05/18 01:07:25;;;;;;;8.27;3.67;;;;;;;13.80;94.54;99135.50;5092705;28;20586;-84
2023/05/18 01:09:54;;;;;;;4.28;1.88;;;;;;;13.83;93.97;99110.69;5092853;28;20036;-84
2023/05/18 01:12:39;;;;;;;2.60;1.75;;;;;;;13.87;93.90;99134.38;5074692;28;20436;-84
2023/05/18 01:15:09;;;;;;;2.30;1.65;;;;;;;13.97;95.05;99164.91;5092671;28;21332;-84
2023/05/18 01:17:59;;;;;;;2.35;1.67;;;;;;;13.78;94.85;99135.56;5092218;28;20043;-84
2023/05/18 01:20:32;;;;;;;3.13;2.22;;;;;;;13.85;92.95;99167.13;5074294;28;20036;-84
2023/05/18 01:23:19;;;;;;;2.45;1.63;;;;;;;13.56;93.09;99166.41;5074093;28;20093;-84
2023/05/18 01:25:53;;;;;;;1.83;1.73;;;;;;;13.57;94.44;99174.28;5092546;28;20020;-84
2023/05/18 01:28:27;;;;;;;1.25;1.15;;;;;;;13.55;94.85;99168.19;5091751;28;20031;-85
2023/05/18 01:30:54;;;;;;;4.32;2.45;;;;;;;13.70;94.29;99164.16;5092604;28;20028;-84
2023/05/18 01:33:20;;;;;;;7.88;3.10;;;;;;;13.36;93.95;99117.66;5092872;28;20989;-84
2023/05/18 01:35:46;;;;;;;4.40;2.25;;;;;;;13.15;94.13;99063.63;5091852;28;20040;-84
2023/05/18 01:38:15;;;;;;;3.45;2.35;;;;;;;13.41;94.57;99110.41;5092050;28;20026;-84
2023/05/18 01:40:47;;;;;;;2.78;2.25;;;;;;;13.52;95.46;99155.06;5091813;28;20035;-84
2023/05/18 01:43:17;;;;;;;14.35;3.10;;;;;;;13.69;95.26;99169.50;5092734;28;20035;-84
2023/05/18 01:45:49;;;;;;;8.10;2.75;;;;;;;13.83;94.67;99166.34;5073876;28;20032;-84
2023/05/18 01:48:19;;;;;;;8.55;3.03;;;;;;;13.74;94.24;99149.84;5092082;28;20028;-84
2023/05/18 01:50:47;;;;;;;6.88;3.33;;;;;;;13.78;94.40;99145.31;5091161;28;20093;-83
2023/05/18 01:53:16;;;;;;;6.55;3.00;;;;;;;14.05;93.48;99172.56;5073514;28;20043;-83
2023/05/18 01:55:44;;;;;;;10.30;3.45;;;;;;;13.68;93.50;99131.50;5092488;28;20144;-85
2023/05/18 01:58:11;;;;;;;5.78;3.42;;;;;;;13.87;94.12;99157.34;5092422;28;20035;-83
2023/05/18 02:00:37;;;;;;;5.85;2.25;;;;;;;13.78;94.42;99155.91;5091249;28;20572;-83
2023/05/18 02:03:03;;;;;;;8.95;2.97;;;;;;;13.79;95.26;99155.84;5087889;28;20127;-85
2023/05/18 02:05:28;;;;;;;4.57;2.90;;;;;;;14.04;94.75;99186.75;5091484;28;20111;-85
2023/05/18 02:07:54;;;;;;;7.65;3.90;;;;;;;13.86;94.18;99161.78;5073305;28;20243;-83
2023/05/18 02:10:20;;;;;;;2.10;1.83;;;;;;;13.69;93.93;99161.53;5091974;28;20023;-83
2023/05/18 02:12:48;;;;;;;6.68;2.28;;;;;;;13.74;93.56;99175.50;5091793;28;20024;-84
2023/05/18 02:15:13;;;;;;;4.43;2.97;;;;;;;13.66;94.81;99212.00;5091621;28;20084;-84
2023/05/18 02:17:39;;;;;;;5.40;3.35;;;;;;;13.49;94.49;99181.66;5090483;28;20514;-85
2023/05/18 02:20:08;;;;;;;2.00;1.77;;;;;;;13.20;94.62;99154.34;5091602;28;20592;-84
2023/05/18 02:22:34;;;;;;;3.60;2.28;;;;;;;13.10;95.92;99144.13;5073321;28;20039;-84
2023/05/18 02:25:00;;;;;;;4.45;3.65;;;;;;;13.36;96.97;99218.31;5091729;28;20571;-84
2023/05/18 02:27:25;;;;;;;;;;;;;;;13.47;97.39;99220.59;5091833;28;20102;-84
2023/05/18 02:29:52;;;;;;;3.33;2.10;;;;;;;13.25;97.31;99183.31;5091357;28;20392;-84
2023/05/18 02:32:17;;;;;;;3.53;2.58;;;;;;;13.33;97.94;99191.00;5073113;28;20541;-84
2023/05/18 02:34:45;;;;;;;3.58;2.70;;;;;;;13.63;98.30;99228.88;5090140;28;20169;-84
2023/05/18 02:37:12;;;;;;;3.67;2.85;;;;;;;13.54;97.68;99179.69;5072473;28;20032;-84
2023/05/18 02:39:38;;;;;;;3.65;2.55;;;;;;;13.72;97.92;99209.16;5090984;28;20046;-84
2023/05/18 02:42:04;;;;;;;20.60;3.35;;;;;;;13.76;98.82;99211.63;5073100;28;20127;-86
2023/05/18 02:44:29;;;;;;;;;;;;;;;13.92;99.33;99224.34;5091556;28;20032;-84
2023/05/18 02:46:55;;;;;;;4.38;2.55;;;;;;;13.54;99.08;99155.84;5090614;28;19927;-83
2023/05/18 02:49:20;;;;;;;8.80;3.28;;;;;;;13.86;99.04;99198.03;5090480;28;20028;-84
2023/05/18 02:51:45;;;;;;;;;;;;;;;14.11;98.67;99216.56;5091130;28;20038;-83
2023/05/18 02:54:11;;;;;;;12.73;3.30;;;;;;;14.09;98.89;99213.09;5091129;28;19919;-85
2023/05/18 02:56:37;;;;;;;5.95;4.03;;;;;;;14.08;98.68;99212.22;5090893;28;20020;-85
2023/05/18 02:59:03;;;;;;;12.45;3.42;;;;;;;13.95;99.66;99203.00;5090797;28;20077;-84
2023/05/18 03:01:28;;;;;;;8.02;4.60;;;;;;;14.15;99.45;99227.00;5090144;28;20543;-85
2023/05/18 03:03:58;;;;;;;5.35;3.63;;;;;;;13.92;99.63;99196.03;5072006;28;20063;-85
2023/05/18 03:06:25;;;;;;;6.65;4.95;;;;;;;14.09;100.00;99210.47;5071762;28;20040;-85
2023/05/18 03:08:53;;;;;;;7.75;4.57;;;;;;;14.05;100.00;99193.78;5090285;28;20085;-85
2023/05/18 03:11:20;;;;;;;7.65;4.53;;;;;;;14.15;100.00;99203.13;5072136;28;20505;-84
2023/05/18 03:13:46;;;;;;;7.43;4.53;;;;;;;14.19;100.00;99213.63;5090778;28;20023;-83
2023/05/18 03:16:12;;;;;;;6.47;3.95;;;;;;;14.15;100.00;99203.13;5089985;28;20096;-83
2023/05/18 03:18:37;;;;;;;;;;;;;;;14.52;100.00;99259.25;5090457;28;20031;-84
2023/05/18 03:21:03;;;;;;;11.23;5.07;;;;;;;14.28;100.00;99229.19;5089585;28;19953;-83
2023/05/18 03:23:29;;;;;;;9.70;4.85;;;;;;;14.58;99.73;99243.09;5072234;28;20036;-81
2023/05/18 03:25:54;;;;;;;;;;;;;;;14.68;99.72;99272.81;5090076;28;20058;-84
2023/05/18 03:28:20;;;;;;;14.18;5.60;;;;;;;14.34;100.00;99215.69;5089963;28;20415;-84
2023/05/18 03:30:45;;;;;;;;;;;;;;;14.58;100.00;99266.97;5071789;28;20128;-83
2023/05/18 03:33:11;;;;;;;7.82;4.25;;;;;;;14.48;100.00;99237.25;5070891;28;19912;-84
2023/05/18 03:35:39;;;;;;;9.85;5.50;;;;;;;14.49;100.00;99228.38;5089574;28;20032;-87
2023/05/18 03:38:05;;;;;;;11.82;4.93;;;;;;;14.56;100.00;99229.00;5090411;28;20046;-81
2023/05/18 03:40:30;;;;;;;9.35;5.40;;;;;;;14.70;100.00;99243.56;5089908;28;20465;-83
2023/05/18 03:42:56;;;;;;;11.52;5.25;;;;;;;14.48;100.00;99212.50;5071927;28;20032;-84
2023/05/18 03:45:21;;;;;;;15.85;7.50;;;;;;;14.80;100.00;99236.97;5089325;28;20073;-83
2023/05/18 03:47:47;;;;;;;;;;;;;;;14.83;100.00;99263.41;5089744;28;20111;-83
2023/05/18 03:50:12;;;;;;;16.27;8.88;;;;;;;14.77;100.00;99234.44;5090620;28;20358;-82
2023/05/18 03:52:39;;;;;;;13.02;5.82;;;;;;;14.99;100.00;99287.56;5089392;28;20485;-84
2023/05/18 03:55:05;;;;;;;12.68;6.05;;;;;;;14.97;100.00;99260.22;5090109;28;20043;-84
2023/05/18 03:57:31;;;;;;;7.97;5.10;;;;;;;14.71;100.00;99216.97;5071561;28;20092;-85
2023/05/18 03:59:57;;;;;;;14.60;6.38;;;;;;;15.02;100.00;99279.47;5089826;28;20059;-84
2023/05/18 04:02:24;;;;;;;9.43;5.07;;;;;;;15.11;100.00;99278.25;5089527;28;20028;-84
2023/05/18 04:04:52;;;;;;;8.88;4.18;;;;;;;14.76;100.00;99238.00;5086118;28;20055;-85
2023/05/18 04:07:21;;;;;;;6.18;5.22;;;;;;;15.01;100.00;99275.06;5086121;28;20032;-86
2023/05/18 04:09:47;;;;;;;10.38;5.13;;;;;;;15.06;100.00;99275.78;5080501;28;20028;-86
2023/05/18 04:12:13;;;;;;;11.77;5.88;;;;;;;14.92;100.00;99276.31;5088085;28;20111;-85
2023/05/18 04:14:41;;;;;;;13.50;6.13;;;;;;;14.78;100.00;99290.13;5086807;28;20229;-85
2023/05/18 04:17:07;;;;;;;11.65;6.30;;;;;;;14.75;100.00;99263.72;5070134;28;20054;-84
2023/05/18 04:19:36;;;;;;;9.23;5.10;;;;;;;14.90;100.00;99298.53;5088846;28;20028;-86
2023/05/18 04:22:05;;;;;;;9.75;5.80;;;;;;;14.89;100.00;99267.59;5085879;28;20036;-84
2023/05/18 04:24:33;;;;;;;11.88;5.32;;;;;;;14.99;100.00;99298.19;5069275;28;20067;-85
2023/05/18 04:26:59;;;;;;;7.72;5.53;;;;;;;14.94;100.00;99278.91;5088451;28;20569;-83
2023/05/18 04:29:26;;;;;;;12.30;5.22;;;;;;;14.98;100.00;99304.41;5080638;28;20157;-85
2023/05/18 04:31:58;;;;;;;10.73;6.00;;;;;;;14.84;100.00;99266.00;5082242;28;20043;-83
2023/05/18 04:34:25;;;;;;;11.75;4.90;;;;;;;14.99;100.00;99299.03;5080022;28;20517;-86
2023/05/18 04:36:53;;;;;;;10.57;7.13;;;;;;;14.86;100.00;99257.97;5077617;28;20028;-83
2023/05/18 04:39:19;;;;;;;8.10;5.90;;;;;;;15.03;100.00;99298.00;5078942;28;20105;-85
2023/05/18 04:41:45;;;;;;;18.05;5.05;;;;;;;14.76;100.00;99238.88;5084184;28;20031;-85
2023/05/18 04:44:12;;;;;;;9.60;5.13;;;;;;;15.21;100.00;99309.69;5079402;28;20119;-85
2023/05/18 04:46:39;;;;;;;7.72;4.13;;;;;;;15.30;100.00;99318.22;5055954;28;20527;-88
2023/05/18 04:49:05;;;;;;;7.13;3.92;;;;;;;15.10;100.00;99287.13;5078241;28;20043;-86
2023/05/18 04:51:33;;;;;;;7.25;4.45;;;;;;;15.00;100.00;99286.66;5080334;28;20493;-85
2023/05/18 04:53:59;;;;;;;8.00;5.75;;;;;;;14.88;100.00;99260.56;5074520;28;20028;-85
2023/05/18 04:56:25;;;;;;;7.38;4.85;;;;;;;15.20;100.00;99310.59;5077004;28;20532;-85
2023/05/18 04:58:50;;;;;;;6.97;4.63;;;;;;;15.14;100.00;99302.88;5074232;28;20020;-87
2023/05/18 05:01:16;;;;;;;7.88;4.60;;;;;;;15.19;100.00;99300.03;5055357;28;20044;-86
2023/05/18 05:03:42;;;;;;;6.63;3.92;;;;;;;15.25;100.00;99296.28;5079388;28;20459;-85
2023/05/18 05:06:08;;;;;;;7.95;4.55;;;;;;;15.14;100.00;99278.97;5062697;28;20040;-86
2023/05/18 05:08:33;;;;;;;8.10;4.32;;;;;;;15.15;100.00;99290.47;5079505;28;20166;-86
2023/05/18 05:10:59;;;;;;;;;;;;;;;15.44;100.00;99328.28;5079845;28;20409;-86
2023/05/18 05:13:25;;;;;;;9.07;5.35;;;;;;;15.41;100.00;99302.69;5072851;28;20380;-83
2023/05/18 05:15:50;;;;;;;12.48;4.95;;;;;;;15.41;100.00;99310.66;5080528;28;20031;-84
2023/05/18 05:18:16;;;;;;;7.20;5.13;;;;;;;15.50;100.00;99304.09;5077513;28;21408;-83
2023/05/18 05:20:41;;;;;;;7.78;4.57;;;;;;;15.64;100.00;99324.81;5074945;28;20064;-84
2023/05/18 05:23:07;;;;;;;9.30;5.65;;;;;;;15.44;100.00;99321.16;5076664;28;20024;-85
2023/05/18 05:25:32;;;;;;;;;;;;;;;15.71;100.00;99334.25;5080785;28;20025;-85
2023/05/18 05:27:58;;;;;;;7.60;4.93;;;;;;;15.60;100.00;99317.88;5078520;28;20366;-84
2023/05/18 05:30:23;;;;;;;8.60;5.40;;;;;;;15.55;100.00;99316.28;5079765;28;20040;-84
2023/05/18 05:32:49;;;;;;;11.93;5.70;;;;;;;15.78;100.00;99319.78;5079409;28;20071;-85
2023/05/18 05:35:14;;;;;;;;;;;;;;;15.92;100.00;99351.13;5081102;28;20043;-85
2023/05/18 05:37:40;;;;;;;9.40;5.15;;;;;;;15.69;99.20;99299.75;5073544;28;19927;-85
2023/05/18 05:40:06;;;;;;;7.22;4.55;;;;;;;15.69;99.82;99328.13;5085644;28;20040;-85
2023/05/18 05:42:32;;;;;;;9.70;5.40;;;;;;;15.71;99.25;99323.63;5078981;28;20032;-85
2023/05/18 05:44:57;;;;;;;8.43;5.05;;;;;;;15.87;99.14;99353.13;5072072;28;20535;-86
2023/05/18 05:47:23;;;;;;;7.13;5.45;;;;;;;15.67;100.00;99335.31;5083356;28;20041;-86
2023/05/18 05:49:48;;;;;;;10.32;5.32;;;;;;;15.55;100.00;99318.94;5082431;28;20035;-86
2023/05/18 05:52:13;;;;;;;;;;;;;;;15.90;100.00;99376.94;5079156;28;20543;-86
2023/05/18 05:54:40;;;;;;;10.38;6.35;;;;;;;15.98;99.93;99376.59;5073927;28;20008;-86
2023/05/18 05:57:05;;;;;;;12.45;5.15;;;;;;;16.00;99.68;99385.38;5064400;28;20434;-85
2023/05/18 05:59:31;;;;;;;7.88;4.57;;;;;;;15.79;99.17;99334.81;5075770;28;20039;-85
2023/05/18 06:01:56;;;;;;;;;;;;;;;16.02;100.00;99384.41;5071205;28;20412;-86
2023/05/18 06:04:21;;;;;;;12.80;5.13;;;;;;;15.72;100.00;99336.84;5078719;28;19916;-86
2023/05/18 06:06:48;;;;;;;12.23;7.15;;;;;;;16.00;99.64;99364.94;5082089;28;20034;-85
2023/05/18 06:09:14;;;;;;;11.45;5.30;;;;;;;16.06;99.52;99391.28;5080143;28;20506;-86
2023/05/18 06:11:40;;;;;;;9.52;4.70;;;;;;;15.73;99.23;99353.66;5070482;28;20024;-86
2023/05/18 06:14:06;;;;;;;9.93;4.55;;;;;;;15.94;99.23;99391.81;5070624;28;20119;-85
2023/05/18 06:16:31;;;;;;;11.00;5.20;;;;;;;15.66;100.00;99371.69;5070343;28;20032;-85
2023/05/18 06:18:57;;;;;;;;;;;;;;;15.85;100.00;99397.50;5071219;28;20052;-85
2023/05/18 06:21:22;;;;;;;11.18;4.80;;;;;;;15.72;100.00;99378.53;5068914;28;19935;-86
2023/05/18 06:23:48;;;;;;;9.18;4.97;;;;;;;15.97;100.00;99402.31;5069799;28;20024;-84
2023/05/18 06:26:13;;;;;;;7.45;4.45;;;;;;;15.76;100.00;99369.50;5069778;28;20098;-86
2023/05/18 06:28:39;;;;;;;13.38;5.72;;;;;;;16.01;100.00;99419.91;5070173;28;20020;-85
2023/05/18 06:31:05;;;;;;;8.38;4.95;;;;;;;16.01;100.00;99403.09;5070361;28;20063;-84
2023/05/18 06:33:30;;;;;;;8.68;6.60;;;;;;;16.37;100.00;99424.56;5069913;28;20030;-84
2023/05/18 06:35:56;;;;;;;;;;;;;;;16.37;99.09;99435.22;5070542;28;20150;-84
2023/05/18 06:38:21;;;;;;;14.85;4.82;;;;;;;16.08;99.16;99377.94;5069542;28;19908;-87
2023/05/18 06:40:47;;;;;;;11.70;6.28;;;;;;;16.56;99.46;99440.63;5069872;28;20033;-87
2023/05/18 06:43:12;;;;;;;13.13;4.50;;;;;;;16.50;99.75;99418.72;5070260;28;20032;-86
2023/05/18 06:45:38;;;;;;;8.15;5.38;;;;;;;16.64;100.00;99430.50;5077943;28;20039;-85
2023/05/18 06:48:03;;;;;;;9.50;6.70;;;;;;;16.91;98.46;99443.53;5072931;28;20040;-85
2023/05/18 06:50:29;;;;;;;11.23;5.55;;;;;;;16.94;97.99;99443.41;5070780;28;20029;-84
2023/05/18 06:52:54;;;;;;;12.57;6.13;;;;;;;16.99;97.52;99440.53;5084848;28;20445;-84
2023/05/18 06:55:20;;;;;;;9.60;4.25;;;;;;;16.96;96.27;99446.88;5084013;28;20037;-85
2023/05/18 06:57:45;;;;;;;9.43;5.88;;;;;;;17.16;97.72;99455.75;5076814;28;20031;-85
2023/05/18 07:00:11;;;;;;;12.68;6.35;;;;;;;16.81;97.34;99400.44;5090276;28;20089;-84
2023/05/18 07:02:38;;;;;;;6.38;3.83;;;;;;;16.76;96.95;99429.09;5089496;28;20390;-85
2023/05/18 07:05:07;;;;;;;5.13;2.72;;;;;;;16.88;97.71;99445.50;5068530;28;20399;-87
2023/05/18 07:07:35;;;;;;;11.27;5.82;;;;;;;16.71;97.30;99430.22;5068563;28;20473;-84
2023/05/18 07:10:01;;;;;;;6.75;4.00;;;;;;;16.71;95.18;99433.75;5087517;28;20096;-84
2023/05/18 07:12:27;;;;;;;8.38;4.47;;;;;;;17.08;94.87;99460.59;5090307;28;20508;-84
2023/05/18 07:14:52;;;;;;;7.72;4.97;;;;;;;17.12;94.83;99446.19;5090178;28;20035;-85
2023/05/18 07:17:18;;;;;;;7.85;4.22;;;;;;;17.00;95.73;99475.09;5089809;28;20032;-86
2023/05/18 07:19:43;;;;;;;6.63;3.90;;;;;;;16.79;97.43;99430.75;5089198;28;20063;-86
2023/05/18 07:22:09;;;;;;;5.22;3.75;;;;;;;17.04;96.55;99464.31;5071210;28;20028;-88
2023/05/18 07:24:34;;;;;;;7.07;3.00;;;;;;;16.66;94.40;99451.75;5071739;28;20039;-88
2023/05/18 07:27:00;;;;;;;6.40;3.60;;;;;;;17.02;94.03;99477.69;5088915;28;20086;-85
2023/05/18 07:29:26;;;;;;;5.00;2.80;;;;;;;17.11;93.54;99471.94;5069366;28;20032;-85
2023/05/18 07:31:51;;;;;;;4.97;2.95;;;;;;;17.09;89.50;99460.50;5056394;28;20036;-86
2023/05/18 07:34:17;;;;;;;5.82;2.97;;;;;;;16.97;87.94;99467.25;5088781;28;20032;-85
2023/05/18 07:36:42;;;;;;;7.90;3.97;;;;;;;16.95;86.73;99457.63;5070807;28;20147;-85
2023/05/18 07:39:08;;;;;;;5.65;3.17;;;;;;;17.37;85.83;99496.56;5085193;28;20032;-84
2023/05/18 07:41:35;;;;;;;5.88;3.40;;;;;;;17.49;84.90;99479.13;5077607;28;20031;-83
2023/05/18 07:44:00;;;;;;;6.25;3.83;;;;;;;17.35;85.34;99431.78;5088757;28;20136;-83
2023/05/18 07:46:25;;;;;;;5.95;4.03;;;;;;;17.75;83.57;99483.25;5075074;28;20045;-82
2023/05/18 07:48:51;;;;;;;7.05;4.28;;;;;;;17.72;84.16;99451.38;5068240;28;20044;-83
2023/05/18 07:51:16;;;;;;;5.95;2.85;;;;;;;17.79;83.88;99438.59;5081978;28;20028;-83
2023/05/18 07:53:42;;;;;;;4.20;2.22;;;;;;;17.91;83.55;99455.84;5078640;28;20024;-83
2023/05/18 07:56:08;;;;;;;5.15;2.97;;;;;;;17.74;82.82;99438.81;5076417;28;20078;-83
2023/05/18 07:58:35;;;;;;;11.60;3.42;;;;;;;17.83;80.80;99425.03;5077593;28;20106;-83
2023/05/18 08:01:00;;;;;;;4.43;2.65;;;;;;;17.82;81.14;99457.97;5081717;28;20044;-83
2023/05/18 08:03:27;;;;;;;4.20;2.75;;;;;;;18.16;78.94;99463.50;5080390;28;20441;-83
2023/05/18 08:05:52;;;;;;;5.15;3.55;;;;;;;18.13;78.64;99498.34;5074186;28;20036;-82
2023/05/18 08:08:17;;;;;;;3.92;2.70;;;;;;;17.97;74.89;99453.72;5076058;28;20100;-82
2023/05/18 08:10:43;;;;;;;6.50;2.70;;;;;;;18.20;75.08;99471.28;5079951;28;20078;-83
2023/05/18 08:13:09;;;;;;;3.88;2.40;;;;;;;18.32;73.42;99463.56;5078060;28;20458;-90
2023/05/18 08:15:35;;;;;;;4.47;2.65;;;;;;;18.20;72.21;99443.72;5075084;28;20032;-82
2023/05/18 08:18:01;;;;;;;6.30;2.55;;;;;;;18.46;70.03;99502.94;5054797;28;20555;-84
2023/05/18 08:20:29;;;;;;;5.50;2.88;;;;;;;18.30;69.63;99494.84;5073284;28;20020;-84
2023/05/18 08:22:55;;;;;;;3.70;2.55;;;;;;;18.23;70.78;99496.97;5079585;28;20527;-83
2023/05/18 08:25:21;;;;;;;5.45;2.30;;;;;;;18.14;69.63;99490.25;5075739;28;20046;-84
2023/05/18 08:27:48;;;;;;;2.50;1.55;;;;;;;18.37;68.83;99522.97;5076143;28;20075;-83
2023/05/18 08:30:13;;;;;;;2.90;2.17;;;;;;;18.30;68.01;99474.34;5076938;28;20038;-83
2023/05/18 08:32:39;;;;;;;3.30;2.05;;;;;;;18.70;68.30;99524.88;5060326;28;20044;-86
2023/05/18 08:35:07;;;;;;;4.25;2.15;;;;;;;18.67;70.45;99527.69;5082651;28;20028;-85
2023/05/18 08:37:33;;;;;;;4.10;2.00;;;;;;;18.81;69.81;99513.63;5080112;28;20028;-80
2023/05/18 08:40:02;;;;;;;7.13;1.73;;;;;;;18.63;68.52;99472.69;5084501;28;20031;-82
2023/05/18 08:42:53;;;;;;;4.55;2.75;;;;;;;19.12;67.18;99535.19;5080652;28;20075;-85
2023/05/18 08:45:46;;;;;;;5.72;1.40;;;;;;;19.08;67.47;99540.75;5077110;28;20044;-88
2023/05/18 08:48:15;;;;;;;4.65;1.98;;;;;;;19.11;66.35;99530.75;5079640;28;20098;-83
2023/05/18 08:50:41;;;;;;;2.83;1.75;;;;;;;19.15;66.71;99550.16;5081173;28;20051;-83
2023/05/18 08:53:09;;;;;;;3.83;1.60;;;;;;;19.11;63.80;99519.22;5080143;28;20043;-84
2023/05/18 08:55:36;;;;;;;2.63;1.38;;;;;;;19.52;61.40;99542.84;5080666;28;20030;-83
2023/05/18 08:58:03;;;;;;;6.80;1.77;;;;;;;19.54;61.47;99518.69;5085519;28;20414;-84
2023/05/18 09:00:29;;;;;;;2.20;1.05;;;;;;;19.75;63.43;99536.25;5080185;28;20044;-86
2023/05/18 09:02:55;;;;;;;2.38;1.38;;;;;;;20.02;59.37;99549.06;5079731;28;20745;-86
2023/05/18 09:05:22;;;;;;;3.38;2.15;;;;;;;20.13;56.89;99560.03;5079368;28;20036;-84
2023/05/18 09:07:50;;;;;;;2.53;1.38;;;;;;;19.96;54.99;99528.00;5061978;28;20093;-84
2023/05/18 09:10:16;;;;;;;2.60;1.38;;;;;;;20.29;58.90;99546.63;5078600;28;20032;-85
2023/05/18 09:12:45;;;;;;;3.42;1.38;;;;;;;20.05;57.21;99519.47;5078657;28;20051;-83
2023/05/18 09:15:12;;;;;;;4.40;2.70;;;;;;;20.15;57.08;99527.81;5078663;28;20105;-82
2023/05/18 09:17:37;;;;;;;1.95;1.25;;;;;;;20.63;56.22;99554.53;5076696;28;20115;-83
2023/05/18 09:20:04;;;;;;;6.00;1.67;;;;;;;20.77;56.13;99565.31;5078294;28;20115;-83
2023/05/18 09:22:30;;;;;;;4.05;1.20;;;;;;;20.95;55.09;99570.56;5079376;28;20493;-82
2023/05/18 09:24:56;;;;;;;3.60;1.45;;;;;;;20.32;56.06;99538.41;5080282;28;20035;-82
2023/05/18 09:27:22;;;;;;;2.38;1.63;;;;;;;20.30;57.86;99569.78;5077591;28;20036;-83
2023/05/18 09:29:53;;;;;;;2.72;1.55;;;;;;;20.47;54.34;99535.81;5078941;28;20126;-86
2023/05/18 09:32:19;;;;;;;1.83;1.38;;;;;;;20.03;55.88;99535.59;5083306;28;20038;-84
2023/05/18 09:34:45;;;;;;;3.45;1.50;;;;;;;20.24;54.60;99554.06;5078053;28;20032;-81
2023/05/18 09:37:11;;;;;;;1.65;1.23;;;;;;;20.08;57.73;99550.53;5081387;28;20038;-82
2023/05/18 09:39:36;;;;;;;3.28;1.45;;;;;;;20.75;54.43;99586.84;5077581;28;20089;-82
2023/05/18 09:42:03;;;;;;;1.75;1.20;;;;;;;20.90;53.48;99577.03;5081697;28;20031;-82
2023/05/18 09:44:33;;;;;;;2.85;1.58;;;;;;;20.85;53.95;99563.06;5076593;28;20043;-86
2023/05/18 09:46:59;;;;;;;2.17;0.95;;;;;;;20.69;54.95;99544.31;5084198;28;20039;-80
2023/05/18 09:49:28;;;;;;;2.28;1.40;;;;;;;20.98;53.57;99575.72;5090907;28;20107;-82
2023/05/18 09:51:53;;;;;;;2.38;0.95;;;;;;;20.88;51.81;99583.44;5073177;28;20412;-82
2023/05/18 09:54:19;;;;;;;2.50;1.20;;;;;;;20.71;53.70;99561.19;5091265;28;20034;-81
2023/05/18 09:56:47;;;;;;;1.77;1.38;;;;;;;21.06;50.99;99579.66;5091058;28;20055;-80
2023/05/18 09:59:14;;;;;;;2.38;1.20;;;;;;;21.02;53.59;99571.88;5088881;28;20548;-82
2023/05/18 10:02:00;;;;;;;1.67;0.82;;;;;;;21.10;51.70;99586.56;5091176;28;20116;-81
2023/05/18 10:04:40;;;;;;;2.80;1.10;;;;;;;20.72;50.82;99564.72;5069347;28;20029;-81
2023/05/18 10:07:16;;;;;;;2.42;1.55;;;;;;;20.83;54.38;99564.09;5052646;28;20452;-82
2023/05/18 10:09:43;;;;;;;3.42;1.88;;;;;;;20.83;51.44;99583.72;5070374;28;20037;-82
2023/05/18 10:12:16;;;;;;;5.93;3.20;;;;;;;21.17;49.54;99572.78;5074257;28;20081;-82
2023/05/18 10:14:43;;;;;;;2.55;1.13;;;;;;;21.31;48.20;99590.72;5090745;28;20032;-81
2023/05/18 10:17:14;;;;;;;1.52;1.35;;;;;;;21.03;50.49;99582.53;5090804;28;20059;-81
2023/05/18 10:19:40;;;;;;;2.03;1.25;;;;;;;21.23;49.82;99597.41;5090258;28;20112;-82
2023/05/18 10:22:07;;;;;;;1.40;1.13;;;;;;;21.07;51.52;99594.81;5091080;28;20028;-83
2023/05/18 10:24:37;;;;;;;3.38;1.48;;;;;;;20.75;52.14;99580.63;5090965;28;20032;-82
2023/05/18 10:27:06;;;;;;;5.35;1.75;;;;;;;20.78;50.25;99564.38;5088678;28;20506;-81
2023/05/18 10:29:33;;;;;;;1.23;0.68;;;;;;;21.01;50.08;99587.13;5090108;28;20034;-82
2023/05/18 10:32:02;;;;;;;2.38;1.33;;;;;;;21.02;49.40;99598.69;5090540;28;20039;-81
2023/05/18 10:34:28;;;;;;;2.97;1.50;;;;;;;20.89;50.78;99587.84;5079019;28;20036;-82
2023/05/18 10:36:55;;;;;;;2.63;1.15;;;;;;;20.99;50.50;99604.25;5070438;28;20025;-83
2023/05/18 10:39:21;;;;;;;3.30;1.38;;;;;;;21.08;49.75;99601.00;5074926;28;20036;-83
2023/05/18 10:41:47;;;;;;;3.13;1.27;;;;;;;21.35;50.82;99592.25;5072559;28;20040;-82
2023/05/18 10:44:15;;;;;;;1.70;1.30;;;;;;;21.30;51.00;99576.41;5076288;28;20040;-83
2023/05/18 10:46:41;;;;;;;8.35;1.95;;;;;;;21.44;52.78;99602.41;5080789;28;20564;-82
2023/05/18 10:49:12;;;;;;;2.25;1.10;;;;;;;21.39;52.83;99589.28;5078453;28;20035;-82
2023/05/18 10:51:42;;;;;;;2.38;1.77;;;;;;;21.36;48.73;99608.25;5072010;28;20185;-83
2023/05/18 10:54:12;;;;;;;3.58;1.38;;;;;;;21.49;50.02;99599.44;5080097;28;20025;-83
2023/05/18 10:56:42;;;;;;;2.65;1.48;;;;;;;21.22;49.02;99586.78;5068763;28;20071;-82
2023/05/18 10:59:08;;;;;;;2.60;1.23;;;;;;;21.40;50.44;99576.75;5070580;28;20052;-82
2023/05/18 11:01:34;;;;;;;1.23;1.08;;;;;;;21.45;50.49;99582.69;5070552;28;20057;-82
2023/05/18 11:04:05;;;;;;;1.48;1.20;;;;;;;21.38;50.28;99559.84;5082003;28;20115;-82
2023/05/18 11:06:33;;;;;;;2.40;1.30;;;;;;;21.41;51.72;99613.31;5070665;28;20093;-83
2023/05/18 11:09:00;;;;;;;3.17;1.50;;;;;;;21.33;52.46;99605.75;5073454;28;20520;-82
2023/05/18 11:11:28;;;;;;;3.83;1.58;;;;;;;21.23;51.86;99618.00;5078634;28;20516;-83
2023/05/18 11:14:02;;;;;;;5.28;1.67;;;;;;;21.09;53.61;99594.72;5085440;28;20516;-83
2023/05/18 11:16:35;;;;;;;3.30;1.85;;;;;;;21.08;54.45;99590.28;5084141;28;20409;-84
2023/05/18 11:19:10;;;;;;;2.20;1.48;;;;;;;21.08;52.27;99614.41;5088962;28;20405;-82
2023/05/18 11:21:40;;;;;;;1.98;1.35;;;;;;;21.04;52.48;99623.63;5088781;28;20114;-83
2023/05/18 11:24:24;;;;;;;1.92;1.08;;;;;;;20.92;53.57;99609.13;5063919;28;20560;-83
2023/05/18 11:26:55;;;;;;;2.47;1.17;;;;;;;20.74;53.90;99600.34;5080181;28;20020;-85
2023/05/18 11:29:28;;;;;;;1.38;1.17;;;;;;;20.72;55.54;99616.50;5085922;28;20044;-82
2023/05/18 11:31:54;;;;;;;1.20;0.95;;;;;;;20.65;56.49;99607.13;5080131;28;20085;-84
2023/05/18 11:34:38;;;;;;;0.88;0.82;;;;;;;20.73;56.96;99625.44;5080267;28;20409;-82